Time;durP1;ratioP1;P1;durP2;ratioP2;P2;SDS_P1;SDS_P2;PMS_P1;PMS_P2;Temp;Humidity;BMP_temperature;BMP_pressure;BME280_temperature;BME280_humidity;BME280_pressure;Samples;Min_cycle;Max_cycle;Signal;HPM_P1;HPM_P2
2022/09/16 00:02:42;;;;;;;;;;;;;;;8.29;100.00;100886.88;10385838;28;20003;-80
2022/09/16 00:07:43;;;;;;;;;;;;;;;8.50;100.00;100882.03;10384582;28;20011;-80
2022/09/16 00:12:43;;;;;;;;;;;;;;;8.68;100.00;100892.59;10384849;28;19952;-81
2022/09/16 00:17:44;;;;;;;;;;;;;;;8.76;100.00;100893.03;10420645;28;19928;-81
2022/09/16 00:22:44;;;;;;;;;;;;;;;8.81;100.00;100878.53;10427426;28;19928;-81
2022/09/16 00:27:46;;;;;;;;;;;;;;;9.04;100.00;100889.31;10419949;28;19921;-80
2022/09/16 00:32:46;;;;;;;;;;;;;;;9.14;100.00;100878.56;10441591;28;19916;-80
2022/09/16 00:37:47;;;;;;;;;;;;;;;9.15;100.00;100889.88;10423140;28;19920;-81
2022/09/16 00:42:47;;;;;;;;;;;;;;;9.16;100.00;100884.75;10423543;28;20019;-81
2022/09/16 00:47:58;;;;;;;;;;;;;;;9.22;100.00;100878.94;10422556;28;19964;-80
2022/09/16 00:52:58;;;;;;;;;;;;;;;9.24;100.00;100870.41;10407293;28;19958;-81
2022/09/16 00:58:01;;;;;;;;;;;;;;;9.32;100.00;100876.00;10438135;28;20059;-81
2022/09/16 01:03:02;;;;;;;;;;;;;;;9.43;100.00;100878.28;10424399;28;19924;-81
2022/09/16 01:08:02;;;;;;;;;;;;;;;9.60;100.00;100873.97;10402100;28;19928;-80
2022/09/16 01:13:03;;;;;;;;;;;;;;;9.62;100.00;100872.31;10400108;28;19928;-81
2022/09/16 01:18:04;;;;;;;;;;;;;;;9.66;100.00;100867.31;10436917;28;19975;-81
2022/09/16 01:23:07;;;;;;;;;;;;;;;9.69;100.00;100864.88;10440697;28;20288;-81
2022/09/16 01:28:16;;;;;;;;;;;;;;;9.58;100.00;100866.03;10402598;28;20011;-81
2022/09/16 01:33:26;;;;;;;;;;;;;;;9.58;100.00;100872.97;10399775;28;19921;-80
2022/09/16 01:38:26;;;;;;;;;;;;;;;9.42;100.00;100860.81;10429441;28;19927;-80
2022/09/16 01:43:30;;;;;;;;;;;;;;;9.53;100.00;100854.44;10443404;28;19932;-80
2022/09/16 01:48:30;;;;;;;;;;;;;;;9.54;100.00;100848.41;10433683;28;19929;-79
2022/09/16 01:53:35;;;;;;;;;;;;;;;9.58;100.00;100849.47;10449575;28;19925;-79
2022/09/16 01:58:38;;;;;;;;;;;;;;;9.46;100.00;100839.25;10390051;28;19971;-80
2022/09/16 02:03:39;;;;;;;;;;;;;;;9.30;100.00;100850.66;10389362;28;20280;-79
2022/09/16 02:08:41;;;;;;;;;;;;;;;9.19;100.00;100840.53;10428869;28;19921;-80
2022/09/16 02:13:43;;;;;;;;;;;;;;;9.12;100.00;100843.63;10412518;28;20383;-81
2022/09/16 02:18:44;;;;;;;;;;;;;;;9.03;100.00;100849.25;10447610;28;20003;-81
2022/09/16 02:23:52;;;;;;;;;;;;;;;8.99;100.00;100843.78;10428053;28;19929;-81
2022/09/16 02:28:53;;;;;;;;;;;;;;;8.87;100.00;100847.53;10430313;28;20280;-82
2022/09/16 02:33:55;;;;;;;;;;;;;;;8.80;100.00;100848.91;10423182;28;19920;-82
2022/09/16 02:38:56;;;;;;;;;;;;;;;8.70;100.00;100853.56;10389075;28;19917;-81
2022/09/16 02:44:00;;;;;;;;;;;;;;;8.58;100.00;100857.28;10419591;28;19920;-81
2022/09/16 02:49:19;;;;;;;;;;;;;;;8.61;100.00;100848.72;10385660;28;19921;-81
2022/09/16 02:54:32;;;;;;;;;;;;;;;8.46;100.00;100843.53;10411304;28;19999;-81
2022/09/16 02:59:32;;;;;;;;;;;;;;;8.38;100.00;100835.25;10427884;28;19923;-81
2022/09/16 03:04:33;;;;;;;;;;;;;;;8.42;100.00;100838.94;10420146;28;20016;-81
2022/09/16 03:09:33;;;;;;;;;;;;;;;8.46;100.00;100849.63;10402710;28;19921;-81
2022/09/16 03:14:43;;;;;;;;;;;;;;;8.54;100.00;100854.41;10418498;28;20301;-81
2022/09/16 03:19:58;;;;;;;;;;;;;;;8.54;100.00;100862.22;10386869;28;20281;-80
2022/09/16 03:25:17;;;;;;;;;;;;;;;8.45;100.00;100845.22;10400878;28;19921;-80
2022/09/16 03:30:18;;;;;;;;;;;;;;;8.50;100.00;100848.13;10445625;28;19923;-79
2022/09/16 03:35:32;;;;;;;;;;;;;;;8.74;100.00;100850.28;10407473;28;20309;-80
2022/09/16 03:40:32;;;;;;;;;;;;;;;8.94;100.00;100817.44;10345973;28;19925;-80
2022/09/16 03:45:32;;;;;;;;;;;;;;;8.98;100.00;100822.00;10366031;28;19917;-80
2022/09/16 03:50:33;;;;;;;;;;;;;;;8.79;100.00;100835.78;10384955;28;19924;-79
2022/09/16 03:55:33;;;;;;;;;;;;;;;8.79;100.00;100820.13;10422482;28;19927;-79
2022/09/16 04:00:33;;;;;;;;;;;;;;;8.90;100.00;100821.59;10444751;28;19923;-78
2022/09/16 04:05:34;;;;;;;;;;;;;;;8.86;100.00;100823.94;10388620;28;19982;-80
2022/09/16 04:10:34;;;;;;;;;;;;;;;8.85;100.00;100825.69;10385257;28;19921;-79
2022/09/16 04:15:35;;;;;;;;;;;;;;;8.88;100.00;100812.78;10421803;28;19921;-79
2022/09/16 04:20:36;;;;;;;;;;;;;;;8.95;100.00;100819.22;10400720;28;19921;-79
2022/09/16 04:25:36;;;;;;;;;;;;;;;8.96;100.00;100827.16;10397968;28;19927;-79
2022/09/16 04:30:37;;;;;;;;;;;;;;;8.95;100.00;100827.97;10360012;28;20353;-78
2022/09/16 04:35:37;;;;;;;;;;;;;;;8.99;100.00;100835.97;10413880;28;19929;-78
2022/09/16 04:40:38;;;;;;;;;;;;;;;9.01;100.00;100827.38;10382695;28;19975;-79
2022/09/16 04:45:39;;;;;;;;;;;;;;;9.04;100.00;100831.88;10392866;28;19943;-79
2022/09/16 04:50:39;;;;;;;;;;;;;;;9.08;100.00;100823.41;10373642;28;19921;-80
2022/09/16 04:55:39;;;;;;;;;;;;;;;9.10;100.00;100827.88;10397011;28;19921;-82
2022/09/16 05:00:40;;;;;;;;;;;;;;;9.11;100.00;100834.88;10376497;28;19963;-79
2022/09/16 05:05:40;;;;;;;;;;;;;;;9.15;100.00;100829.81;10386115;28;20332;-80
2022/09/16 05:10:41;;;;;;;;;;;;;;;9.11;100.00;100834.00;10352895;28;19925;-80
2022/09/16 05:15:41;;;;;;;;;;;;;;;9.04;100.00;100830.16;10387436;28;19921;-80
2022/09/16 05:20:43;;;;;;;;;;;;;;;8.88;100.00;100822.31;10438435;28;19928;-78
2022/09/16 05:25:43;;;;;;;;;;;;;;;8.85;100.00;100836.13;10403298;28;19921;-80
2022/09/16 05:30:43;;;;;;;;;;;;;;;9.03;100.00;100832.69;10394567;28;19921;-81
2022/09/16 05:35:44;;;;;;;;;;;;;;;9.25;100.00;100847.78;10382254;28;20273;-79
2022/09/16 05:40:45;;;;;;;;;;;;;;;9.43;100.00;100841.72;10405242;28;19927;-80
2022/09/16 05:45:50;;;;;;;;;;;;;;;9.53;100.00;100844.91;10405322;28;19925;-83
2022/09/16 05:50:52;;;;;;;;;;;;;;;9.63;100.00;100841.03;10377473;28;19925;-80
2022/09/16 05:56:13;;;;;;;;;;;;;;;9.73;100.00;100831.03;10427910;28;19925;-81
2022/09/16 06:01:17;;;;;;;;;;;;;;;9.98;100.00;100823.59;10378763;28;20387;-80
2022/09/16 06:06:26;;;;;;;;;;;;;;;10.19;100.00;100832.44;10359369;28;19944;-81
2022/09/16 06:11:26;;;;;;;;;;;;;;;10.29;100.00;100842.53;10376556;28;20270;-78
2022/09/16 06:16:27;;;;;;;;;;;;;;;10.43;100.00;100848.44;10379261;28;19922;-77
2022/09/16 06:21:28;;;;;;;;;;;;;;;10.54;100.00;100855.09;10347825;28;19921;-78
2022/09/16 06:26:28;;;;;;;;;;;;;;;10.74;100.00;100844.66;10380685;28;19982;-77
2022/09/16 06:31:28;;;;;;;;;;;;;;;12.04;96.35;100847.72;10389888;28;19971;-77
2022/09/16 06:36:30;;;;;;;;;;;;;;;12.63;88.58;100836.94;10400392;28;19917;-77
2022/09/16 06:41:30;;;;;;;;;;;;;;;11.92;91.74;100841.06;10420472;28;19928;-78
2022/09/16 06:46:31;;;;;;;;;;;;;;;11.66;94.22;100838.22;10446687;28;20366;-78
2022/09/16 06:51:31;;;;;;;;;;;;;;;11.80;94.86;100847.59;10390330;28;20423;-79
2022/09/16 06:56:34;;;;;;;;;;;;;;;12.40;91.45;100845.63;10367802;28;19933;-79
2022/09/16 07:01:35;;;;;;;;;;;;;;;12.64;90.06;100856.22;10358954;28;19972;-79
2022/09/16 07:06:35;;;;;;;;;;;;;;;12.50;87.95;100863.53;10361069;28;20020;-80
2022/09/16 07:11:35;;;;;;;;;;;;;;;12.40;88.61;100866.63;10397487;28;19921;-80
2022/09/16 07:16:36;;;;;;;;;;;;;;;12.38;89.42;100871.84;10404844;28;19917;-79
2022/09/16 07:21:36;;;;;;;;;;;;;;;12.45;89.80;100873.88;10373636;28;19913;-80
2022/09/16 07:26:37;;;;;;;;;;;;;;;12.33;90.47;100879.50;10405110;28;19928;-81
2022/09/16 07:31:37;;;;;;;;;;;;;;;12.01;91.21;100868.59;10400540;28;20011;-80
2022/09/16 07:36:39;;;;;;;;;;;;;;;11.63;93.04;100870.44;10368547;28;19929;-80
2022/09/16 07:41:40;;;;;;;;;;;;;;;11.65;93.91;100867.91;10370047;28;20028;-80
2022/09/16 07:46:44;;;;;;;;;;;;;;;12.23;92.08;100876.47;10369151;28;19922;-80
2022/09/16 07:51:44;;;;;;;;;;;;;;;12.52;89.64;100875.00;10389783;28;19939;-81
2022/09/16 07:56:45;;;;;;;;;;;;;;;12.61;89.69;100882.38;10394912;28;19921;-80
2022/09/16 08:01:46;;;;;;;;;;;;;;;12.99;86.96;100884.66;10370736;28;19922;-80
2022/09/16 08:06:46;;;;;;;;;;;;;;;13.16;85.82;100887.94;10361147;28;19921;-80
2022/09/16 08:11:47;;;;;;;;;;;;;;;14.43;82.14;100883.56;10382412;28;20270;-79
2022/09/16 08:16:50;;;;;;;;;;;;;;;15.90;75.90;100885.25;10388675;28;19988;-77
2022/09/16 08:21:50;;;;;;;;;;;;;;;15.95;72.01;100898.53;10384874;28;20250;-77
2022/09/16 08:26:50;;;;;;;;;;;;;;;15.07;74.51;100886.41;10400039;28;19926;-77
2022/09/16 08:31:51;;;;;;;;;;;;;;;14.63;77.78;100898.25;10397085;28;19924;-77
2022/09/16 08:36:51;;;;;;;;;;;;;;;15.79;74.67;100898.09;10404057;28;19932;-77
2022/09/16 08:42:04;;;;;;;;;;;;;;;17.12;67.88;100905.75;10383185;28;19917;-78
2022/09/16 08:47:08;;;;;;;;;;;;;;;16.15;69.12;100910.50;10377447;28;19925;-79
2022/09/16 08:52:09;;;;;;;;;;;;;;;15.59;70.87;100916.03;10376887;28;19937;-79
2022/09/16 08:57:12;;;;;;;;;;;;;;;15.12;71.28;100912.06;10343594;28;19975;-80
2022/09/16 09:02:21;;;;;;;;;;;;;;;15.03;72.05;100917.06;10359400;28;20412;-80
2022/09/16 09:07:27;;;;;;;;;;;;;;;15.26;72.81;100916.88;10357489;28;20432;-79
2022/09/16 09:12:28;;;;;;;;;;;;;;;16.42;67.78;100912.03;10361530;28;19929;-80
2022/09/16 09:17:35;;;;;;;;;;;;;;;18.82;60.34;100907.00;10360566;28;20377;-80
2022/09/16 09:22:55;;;;;;;;;;;;;;;20.66;54.82;100913.41;10362019;28;20266;-78
2022/09/16 09:28:01;;;;;;;;;;;;;;;20.41;53.99;100909.66;10352087;28;19918;-81
2022/09/16 09:33:05;;;;;;;;;;;;;;;21.29;50.05;100908.44;10360250;28;20273;-80
2022/09/16 09:38:18;;;;;;;;;;;;;;;21.72;48.36;100911.25;10360580;28;19923;-80
2022/09/16 09:43:18;;;;;;;;;;;;;;;21.32;49.69;100895.13;10345722;28;20384;-79
2022/09/16 09:48:20;;;;;;;;;;;;;;;21.23;50.02;100891.56;10344800;28;19922;-79
2022/09/16 09:53:27;;;;;;;;;;;;;;;22.52;47.22;100890.88;10323060;28;19922;-80
2022/09/16 09:58:30;;;;;;;;;;;;;;;22.22;47.50;100884.66;10355708;28;19927;-80
2022/09/16 10:03:31;;;;;;;;;;;;;;;19.13;53.74;100893.28;10380506;28;25222;-80
2022/09/16 10:08:45;;;;;;;;;;;;;;;20.46;51.85;100888.44;10374112;28;19921;-79
2022/09/16 10:13:52;;;;;;;;;;;;;;;22.01;48.64;100875.78;10363764;28;19964;-79
2022/09/16 10:19:15;;;;;;;;;;;;;;;22.02;42.92;100868.66;10390410;28;20092;-79
2022/09/16 10:24:28;;;;;;;;;;;;;;;18.81;52.24;100865.44;10391090;28;20437;-77
2022/09/16 10:29:29;;;;;;;;;;;;;;;17.25;56.77;100879.56;10389479;28;19920;-79
2022/09/16 10:34:33;;;;;;;;;;;;;;;16.05;61.93;100879.44;10390128;28;19922;-77
2022/09/16 10:39:33;;;;;;;;;;;;;;;15.45;64.90;100880.47;10392110;28;20012;-77
2022/09/16 10:44:35;;;;;;;;;;;;;;;15.79;63.11;100887.53;10381151;28;19917;-78
2022/09/16 10:49:39;;;;;;;;;;;;;;;14.67;60.57;100925.59;10376150;28;20274;-78
2022/09/16 10:54:40;;;;;;;;;;;;;;;13.05;68.80;100943.63;10427440;28;19921;-79
2022/09/16 10:59:40;;;;;;;;;;;;;;;11.72;78.25;100946.00;10422812;28;19933;-78
2022/09/16 11:04:50;;;;;;;;;;;;;;;11.08;85.52;100947.47;10402014;28;19924;-78
2022/09/16 11:09:53;;;;;;;;;;;;;;;10.83;89.93;100954.16;10409085;28;19924;-78
2022/09/16 11:14:57;;;;;;;;;;;;;;;10.62;91.60;100972.31;10393538;28;19928;-79
2022/09/16 11:20:03;;;;;;;;;;;;;;;10.51;92.95;100971.81;10396320;28;20332;-78
2022/09/16 11:25:22;;;;;;;;;;;;;;;10.38;93.44;100971.16;10418382;28;19923;-81
2022/09/16 11:30:22;;;;;;;;;;;;;;;10.15;97.31;100975.22;10403859;28;19921;-81
2022/09/16 11:35:28;;;;;;;;;;;;;;;9.85;99.31;100980.66;10380452;28;19922;-80
2022/09/16 11:40:31;;;;;;;;;;;;;;;9.58;100.00;100980.13;10339896;28;19925;-79
2022/09/16 11:45:34;;;;;;;;;;;;;;;9.46;100.00;100972.50;10389093;28;19924;-80
2022/09/16 11:50:53;;;;;;;;;;;;;;;9.39;100.00;100977.41;10412430;28;19929;-81
2022/09/16 11:55:58;;;;;;;;;;;;;;;9.42;100.00;100970.53;10401019;28;19960;-79
2022/09/16 12:00:59;;;;;;;;;;;;;;;9.50;100.00;100964.00;10389533;28;19921;-79
2022/09/16 12:06:04;;;;;;;;;;;;;;;9.63;100.00;100962.97;10384739;28;19920;-79
2022/09/16 12:11:08;;;;;;;;;;;;;;;9.72;100.00;100960.84;10380302;28;20063;-79
2022/09/16 12:16:11;;;;;;;;;;;;;;;10.11;100.00;100962.81;10382847;28;20438;-79
2022/09/16 12:21:18;;;;;;;;;;;;;;;10.58;100.00;100955.59;10383294;28;20380;-78
2022/09/16 12:26:19;;;;;;;;;;;;;;;13.52;100.00;100934.88;10415472;28;19928;-79
2022/09/16 12:31:22;;;;;;;;;;;;;;;17.32;74.59;100923.78;10415136;28;19966;-78
2022/09/16 12:36:24;;;;;;;;;;;;;;;19.20;64.66;100922.56;10389876;28;19978;-78
2022/09/16 12:41:43;;;;;;;;;;;;;;;20.67;63.08;100927.56;10394225;28;19928;-79
2022/09/16 12:46:52;;;;;;;;;;;;;;;20.47;59.36;100940.72;10405815;28;19924;-78
2022/09/16 12:51:53;;;;;;;;;;;;;;;19.45;62.75;100943.19;10409480;28;19921;-79
2022/09/16 12:57:17;;;;;;;;;;;;;;;19.55;66.61;100931.81;10410331;28;19935;-80
2022/09/16 13:02:18;;;;;;;;;;;;;;;18.89;61.07;100963.63;10400048;28;20372;-80
2022/09/16 13:07:31;;;;;;;;;;;;;;;14.79;72.29;100988.34;10381582;28;20266;-79
2022/09/16 13:12:31;;;;;;;;;;;;;;;12.07;84.15;100979.84;10381513;28;19921;-79
2022/09/16 13:17:32;;;;;;;;;;;;;;;11.00;93.69;100978.53;10365379;28;19925;-79
2022/09/16 13:22:39;;;;;;;;;;;;;;;10.43;96.91;100964.47;10380355;28;20364;-78
2022/09/16 13:27:39;;;;;;;;;;;;;;;10.17;100.00;100957.88;10412262;28;20284;-78
2022/09/16 13:32:43;;;;;;;;;;;;;;;10.27;100.00;100935.72;10380796;28;19927;-78
2022/09/16 13:37:46;;;;;;;;;;;;;;;10.45;100.00;100948.84;10380990;28;19929;-77
2022/09/16 13:42:46;;;;;;;;;;;;;;;10.98;100.00;100953.97;10379440;28;19942;-77
2022/09/16 13:47:47;;;;;;;;;;;;;;;11.69;100.00;100953.72;10391468;28;20269;-78
2022/09/16 13:52:49;;;;;;;;;;;;;;;11.59;98.38;100960.25;10383622;28;20012;-77
2022/09/16 13:57:59;;;;;;;;;;;;;;;10.87;100.00;100967.47;10386443;28;20292;-77
2022/09/16 14:03:03;;;;;;;;;;;;;;;10.45;100.00;100968.91;10380439;28;20317;-77
2022/09/16 14:08:06;;;;;;;;;;;;;;;10.08;100.00;100980.97;10396076;28;19921;-78
2022/09/16 14:13:32;;;;;;;;;;;;;;;9.90;100.00;100979.19;10398204;28;19927;-77
2022/09/16 14:18:34;;;;;;;;;;;;;;;9.93;100.00;100976.72;10384826;28;19921;-79
2022/09/16 14:23:34;;;;;;;;;;;;;;;10.29;100.00;100975.94;10362366;28;19921;-77
2022/09/16 14:28:34;;;;;;;;;;;;;;;10.68;100.00;100956.91;10395558;28;19928;-77
2022/09/16 14:33:36;;;;;;;;;;;;;;;10.91;100.00;100954.50;10396272;28;19958;-77
2022/09/16 14:39:02;;;;;;;;;;;;;;;10.98;99.56;100956.59;10378407;28;20377;-77
2022/09/16 14:44:19;;;;;;;;;;;;;;;11.28;98.80;100946.66;10400393;28;19917;-78
2022/09/16 14:49:20;;;;;;;;;;;;;;;12.80;99.71;100949.63;10369925;28;19932;-78
2022/09/16 14:54:21;;;;;;;;;;;;;;;15.83;77.07;100949.22;10379849;28;19925;-79
2022/09/16 14:59:22;;;;;;;;;;;;;;;16.54;71.35;100948.44;10382294;28;19932;-79
2022/09/16 15:04:24;;;;;;;;;;;;;;;15.08;76.65;100939.19;10389727;28;19925;-80
2022/09/16 15:09:43;;;;;;;;;;;;;;;14.44;78.80;100944.19;10402481;28;20336;-79
2022/09/16 15:14:43;;;;;;;;;;;;;;;12.95;83.94;100940.56;10397408;28;19921;-77
2022/09/16 15:19:46;;;;;;;;;;;;;;;13.93;83.65;100937.19;10405537;28;19921;-81
2022/09/16 15:25:03;;;;;;;;;;;;;;;14.01;81.00;100924.31;10383750;28;19924;-81
2022/09/16 15:30:04;;;;;;;;;;;;;;;14.34;79.77;100921.03;10365552;28;20381;-81
2022/09/16 15:35:09;;;;;;;;;;;;;;;14.16;79.73;100914.31;10383041;28;19925;-81
2022/09/16 15:40:19;;;;;;;;;;;;;;;13.33;84.58;100923.63;10419710;28;20373;-83
2022/09/16 15:45:20;;;;;;;;;;;;;;;13.46;84.81;100919.75;10357547;28;19959;-80
2022/09/16 15:50:20;;;;;;;;;;;;;;;13.25;83.44;100913.66;10394547;28;20013;-80
2022/09/16 15:55:25;;;;;;;;;;;;;;;13.09;84.87;100910.47;10395289;28;20428;-78
2022/09/16 16:00:26;;;;;;;;;;;;;;;12.75;86.98;100923.19;10376278;28;19964;-78
2022/09/16 16:05:28;;;;;;;;;;;;;;;12.53;87.73;100926.66;10386102;28;20022;-77
2022/09/16 16:10:30;;;;;;;;;;;;;;;12.03;89.19;100931.63;10401394;28;19924;-79
2022/09/16 16:15:34;;;;;;;;;;;;;;;11.79;89.61;100929.69;10399191;28;19952;-79
2022/09/16 16:20:35;;;;;;;;;;;;;;;11.68;91.57;100925.72;10378348;28;19925;-78
2022/09/16 16:25:35;;;;;;;;;;;;;;;11.46;92.01;100928.25;10400616;28;19925;-79
2022/09/16 16:30:35;;;;;;;;;;;;;;;11.33;93.30;100927.66;10364871;28;20036;-78
2022/09/16 16:35:36;;;;;;;;;;;;;;;11.24;92.56;100926.41;10390396;28;20011;-79
2022/09/16 16:40:36;;;;;;;;;;;;;;;11.05;92.77;100935.13;10371345;28;19940;-80
2022/09/16 16:45:36;;;;;;;;;;;;;;;10.90;94.18;100948.41;10379953;28;19925;-78
2022/09/16 16:50:37;;;;;;;;;;;;;;;10.84;94.10;100950.72;10401250;28;19932;-78
2022/09/16 16:55:37;;;;;;;;;;;;;;;10.83;92.99;100957.66;10404687;28;19921;-78
2022/09/16 17:00:38;;;;;;;;;;;;;;;10.66;92.84;100962.09;10398253;28;20396;-80
2022/09/16 17:05:39;;;;;;;;;;;;;;;10.46;93.15;100955.00;10397655;28;20384;-79
2022/09/16 17:10:42;;;;;;;;;;;;;;;10.39;92.45;100952.06;10392666;28;19929;-78
2022/09/16 17:15:42;;;;;;;;;;;;;;;10.22;93.18;100952.91;10380729;28;20392;-79
2022/09/16 17:20:42;;;;;;;;;;;;;;;10.11;94.40;100954.97;10382264;28;19921;-79
2022/09/16 17:25:43;;;;;;;;;;;;;;;9.96;95.26;100962.94;10380489;28;20008;-78
2022/09/16 17:30:44;;;;;;;;;;;;;;;9.89;95.86;100960.81;10376926;28;20004;-78
2022/09/16 17:35:44;;;;;;;;;;;;;;;9.81;95.11;100963.94;10409904;28;20012;-79
2022/09/16 17:40:44;;;;;;;;;;;;;;;9.65;95.58;100975.28;10403044;28;20266;-79
2022/09/16 17:45:51;;;;;;;;;;;;;;;9.46;96.89;100981.25;10377065;28;19921;-79
2022/09/16 17:50:52;;;;;;;;;;;;;;;9.28;98.12;100988.97;10404140;28;19925;-78
2022/09/16 17:55:54;;;;;;;;;;;;;;;9.17;97.01;100985.78;10358191;28;19925;-84
2022/09/16 18:00:54;;;;;;;;;;;;;;;9.06;97.46;101002.56;10346475;28;20422;-79
2022/09/16 18:06:01;;;;;;;;;;;;;;;8.86;98.72;101002.34;10338567;28;19928;-78
2022/09/16 18:11:01;;;;;;;;;;;;;;;8.85;96.34;101003.16;10352393;28;19925;-80
2022/09/16 18:16:02;;;;;;;;;;;;;;;8.76;96.00;101013.06;10357521;28;19972;-79
2022/09/16 18:21:03;;;;;;;;;;;;;;;8.66;95.80;101012.53;10358399;28;19948;-80
2022/09/16 18:26:05;;;;;;;;;;;;;;;8.51;97.18;101016.88;10364833;28;19921;-80
2022/09/16 18:31:06;;;;;;;;;;;;;;;8.43;98.03;101018.97;10362774;28;20377;-80
2022/09/16 18:36:07;;;;;;;;;;;;;;;8.31;98.39;101029.59;10359747;28;19953;-80
2022/09/16 18:41:08;;;;;;;;;;;;;;;8.27;99.23;101029.31;10361293;28;19977;-79
2022/09/16 18:46:13;;;;;;;;;;;;;;;8.23;100.00;101030.84;10359692;28;20613;-80
2022/09/16 18:51:16;;;;;;;;;;;;;;;8.23;100.00;101030.84;10359310;28;19928;-80
2022/09/16 18:56:18;;;;;;;;;;;;;;;8.29;100.00;101033.84;10361289;28;20388;-82
2022/09/16 19:01:21;;;;;;;;;;;;;;;8.26;100.00;101037.94;10360113;28;19940;-84
2022/09/16 19:06:21;;;;;;;;;;;;;;;8.31;100.00;101040.03;10351295;28;19929;-84
2022/09/16 19:11:23;;;;;;;;;;;;;;;8.21;100.00;101043.78;10358535;28;19928;-83
2022/09/16 19:16:23;;;;;;;;;;;;;;;8.18;100.00;101035.78;10364217;28;19976;-83
2022/09/16 19:21:24;;;;;;;;;;;;;;;8.10;100.00;101036.13;10359192;28;20332;-83
2022/09/16 19:26:25;;;;;;;;;;;;;;;8.04;100.00;101034.03;10359994;28;19925;-83
2022/09/16 19:31:26;;;;;;;;;;;;;;;8.01;100.00;101036.47;10334075;28;19921;-85
2022/09/16 19:36:27;;;;;;;;;;;;;;;7.98;100.00;101047.63;10343660;28;20067;-82
2022/09/16 19:41:28;;;;;;;;;;;;;;;8.05;100.00;101038.44;10355522;28;19929;-81
2022/09/16 19:46:30;;;;;;;;;;;;;;;7.96;100.00;101038.81;10355663;28;19922;-82
2022/09/16 19:51:31;;;;;;;;;;;;;;;7.91;100.00;101041.13;10357292;28;19927;-83
2022/09/16 19:56:32;;;;;;;;;;;;;;;7.89;100.00;101037.53;10357031;28;19921;-84
2022/09/16 20:01:33;;;;;;;;;;;;;;;7.92;100.00;101047.25;10360456;28;19925;-82
2022/09/16 20:06:37;;;;;;;;;;;;;;;7.96;100.00;101040.50;10352173;28;19925;-82
2022/09/16 20:11:39;;;;;;;;;;;;;;;7.94;100.00;101046.53;10355821;28;20408;-82
2022/09/16 20:16:39;;;;;;;;;;;;;;;7.91;100.00;101048.06;10358943;28;19971;-81
2022/09/16 20:21:39;;;;;;;;;;;;;;;7.85;100.00;101048.56;10343223;28;20028;-82
2022/09/16 20:26:40;;;;;;;;;;;;;;;7.77;100.00;101055.00;10349431;28;20661;-81
2022/09/16 20:31:40;;;;;;;;;;;;;;;7.77;100.00;101050.72;10362731;28;20004;-81
2022/09/16 20:36:41;;;;;;;;;;;;;;;7.74;100.00;101047.00;10357081;28;19926;-82
2022/09/16 20:41:42;;;;;;;;;;;;;;;7.72;100.00;101056.41;10357139;28;19995;-79
2022/09/16 20:46:42;;;;;;;;;;;;;;;7.74;100.00;101063.53;10359556;28;20361;-82
2022/09/16 20:51:43;;;;;;;;;;;;;;;7.67;100.00;101069.19;10358152;28;19925;-82
2022/09/16 20:56:44;;;;;;;;;;;;;;;7.65;100.00;101083.81;10364030;28;19948;-81
2022/09/16 21:01:45;;;;;;;;;;;;;;;7.70;100.00;101094.50;10374700;28;21990;-81
2022/09/16 21:06:45;;;;;;;;;;;;;;;8.00;100.00;101094.63;10376507;28;20066;-81
2022/09/16 21:11:46;;;;;;;;;;;;;;;8.05;100.00;101091.50;10389960;28;19921;-84
2022/09/16 21:16:48;;;;;;;;;;;;;;;7.95;100.00;101096.97;10385046;28;19921;-84
2022/09/16 21:21:48;;;;;;;;;;;;;;;8.00;100.00;101100.75;10366699;28;19924;-82
2022/09/16 21:26:49;;;;;;;;;;;;;;;8.13;100.00;101098.91;10390142;28;19925;-81
2022/09/16 21:31:50;;;;;;;;;;;;;;;8.10;100.00;101110.03;10396963;28;19992;-81
2022/09/16 21:36:50;;;;;;;;;;;;;;;7.98;100.00;101097.16;10381534;28;19921;-81
2022/09/16 21:41:51;;;;;;;;;;;;;;;7.88;100.00;101108.69;10397094;28;19943;-82
2022/09/16 21:46:51;;;;;;;;;;;;;;;7.80;100.00;101107.31;10397981;28;19939;-81
2022/09/16 21:51:52;;;;;;;;;;;;;;;7.65;100.00;101112.47;10380021;28;19932;-80
2022/09/16 21:56:52;;;;;;;;;;;;;;;7.55;100.00;101110.97;10389533;28;20675;-79
2022/09/16 22:01:53;;;;;;;;;;;;;;;7.54;100.00;101113.50;10405228;28;19921;-80
2022/09/16 22:06:54;;;;;;;;;;;;;;;7.51;100.00;101119.38;10378438;28;19975;-84
2022/09/16 22:11:54;;;;;;;;;;;;;;;7.46;100.00;101106.09;10389956;28;19927;-80
2022/09/16 22:16:55;;;;;;;;;;;;;;;7.44;100.00;101105.09;10412622;28;19928;-83
2022/09/16 22:21:55;;;;;;;;;;;;;;;7.41;100.00;101103.97;10404178;28;19920;-81
2022/09/16 22:26:55;;;;;;;;;;;;;;;7.29;100.00;101107.59;10398804;28;20016;-80
2022/09/16 22:31:56;;;;;;;;;;;;;;;7.23;100.00;101107.19;10421088;28;19924;-81
2022/09/16 22:36:56;;;;;;;;;;;;;;;7.18;100.00;101106.00;10394639;28;19935;-82
2022/09/16 22:41:57;;;;;;;;;;;;;;;7.32;100.00;101102.59;10419010;28;19921;-82
2022/09/16 22:46:57;;;;;;;;;;;;;;;7.39;100.00;101095.16;10411474;28;19989;-82
2022/09/16 22:51:57;;;;;;;;;;;;;;;7.47;100.00;101096.56;10386886;28;20010;-83
2022/09/16 22:56:58;;;;;;;;;;;;;;;7.58;100.00;101098.13;10390239;28;19928;-82
2022/09/16 23:01:58;;;;;;;;;;;;;;;7.65;100.00;101102.06;10417970;28;19937;-82
2022/09/16 23:06:58;;;;;;;;;;;;;;;7.70;100.00;101090.22;10389183;28;19921;-82
2022/09/16 23:11:59;;;;;;;;;;;;;;;7.84;100.00;101095.38;10387702;28;20391;-79
2022/09/16 23:16:59;;;;;;;;;;;;;;;7.88;100.00;101087.84;10403488;28;19933;-83
2022/09/16 23:21:59;;;;;;;;;;;;;;;7.78;100.00;101081.16;10398870;28;19921;-83
2022/09/16 23:26:59;;;;;;;;;;;;;;;7.76;100.00;101084.47;10405509;28;19921;-83
2022/09/16 23:32:02;;;;;;;;;;;;;;;7.74;100.00;101084.41;10384006;28;20032;-84
2022/09/16 23:37:02;;;;;;;;;;;;;;;7.71;100.00;101086.81;10404391;28;19957;-83
2022/09/16 23:42:02;;;;;;;;;;;;;;;7.72;100.00;101079.88;10405063;28;19944;-83
2022/09/16 23:47:03;;;;;;;;;;;;;;;7.74;100.00;101080.88;10384854;28;20051;-83
2022/09/16 23:52:03;;;;;;;;;;;;;;;7.68;100.00;101089.22;10394206;28;19944;-82
2022/09/16 23:57:03;;;;;;;;;;;;;;;7.65;100.00;101089.03;10385675;28;19925;-82
